Aviation Digital Data Service (ADDS)

Output produced by METARs form (1307 UTC 24 August 2019)
found at http://www.aviationweather.gov/metar/data/
 
METAR text: LOWG 241250Z 28005KT 250V330 9999 FEW035 FEW045CB SCT060 OVC250 25/17 Q1022 TEMPO -TSRA
Conditions at: LOWG (GRAZ (MIL/CIV) , AT) observed 1250 UTC 24 August 2019
Temperature: 25.0°C (77°F)
Dewpoint: 17.0°C (63°F) [RH = 61%]
Pressure (altimeter): 30.18 inches Hg (1022.0 mb)
Winds: from the W (280 degrees) at 6 MPH (5 knots; 2.6 m/s)
Visibility: 6 or more miles (10+ km)
Ceiling: 25000 feet AGL
Clouds: few clouds at 3500 feet AGL
few clouds at 4500 feet AGL
scattered clouds at 6000 feet AGL
overcast cloud deck at 25000 feet AGL
Weather: no significant weather observed at this time

METAR text: LOWG 241220Z 16004KT 130V200 9999 FEW035 FEW045CB SCT060 OVC250 27/17 Q1021 NOSIG
Conditions at: LOWG (GRAZ (MIL/CIV) , AT) observed 1220 UTC 24 August 2019
Temperature: 27.0°C (81°F)
Dewpoint: 17.0°C (63°F) [RH = 54%]
Pressure (altimeter): 30.15 inches Hg (1021.0 mb)
Winds: from the SSE (160 degrees) at 5 MPH (4 knots; 2.1 m/s)
Visibility: 6 or more miles (10+ km)
Ceiling: 25000 feet AGL
Clouds: few clouds at 3500 feet AGL
few clouds at 4500 feet AGL
scattered clouds at 6000 feet AGL
overcast cloud deck at 25000 feet AGL
Weather: no significant weather observed at this time

METAR text: LOWG 241150Z 07005KT 360V140 9999 FEW035 FEW045CB SCT055 OVC250 28/17 Q1021 NOSIG
Conditions at: LOWG (GRAZ (MIL/CIV) , AT) observed 1150 UTC 24 August 2019
Temperature: 28.0°C (82°F)
Dewpoint: 17.0°C (63°F) [RH = 51%]
Pressure (altimeter): 30.15 inches Hg (1021.0 mb)
Winds: from the ENE (70 degrees) at 6 MPH (5 knots; 2.6 m/s)
Visibility: 6 or more miles (10+ km)
Ceiling: 25000 feet AGL
Clouds: few clouds at 3500 feet AGL
few clouds at 4500 feet AGL
scattered clouds at 5500 feet AGL
overcast cloud deck at 25000 feet AGL
Weather: no significant weather observed at this time

METAR text: LOWG 241120Z VRB05KT 9999 FEW035 FEW045CB OVC250 27/17 Q1022 NOSIG
Conditions at: LOWG (GRAZ (MIL/CIV) , AT) observed 1120 UTC 24 August 2019
Temperature: 27.0°C (81°F)
Dewpoint: 17.0°C (63°F) [RH = 54%]
Pressure (altimeter): 30.18 inches Hg (1022.0 mb)
Winds: variable direction winds at 6 MPH (5 knots; 2.6 m/s)
Visibility: 6 or more miles (10+ km)
Ceiling: 25000 feet AGL
Clouds: few clouds at 3500 feet AGL
few clouds at 4500 feet AGL
overcast cloud deck at 25000 feet AGL
Weather: no significant weather observed at this time

METAR text: LOWG 241050Z 17004KT 100V210 9999 FEW035 FEW045CB OVC250 27/17 Q1022 NOSIG
Conditions at: LOWG (GRAZ (MIL/CIV) , AT) observed 1050 UTC 24 August 2019
Temperature: 27.0°C (81°F)
Dewpoint: 17.0°C (63°F) [RH = 54%]
Pressure (altimeter): 30.18 inches Hg (1022.0 mb)
Winds: from the S (170 degrees) at 5 MPH (4 knots; 2.1 m/s)
Visibility: 6 or more miles (10+ km)
Ceiling: 25000 feet AGL
Clouds: few clouds at 3500 feet AGL
few clouds at 4500 feet AGL
overcast cloud deck at 25000 feet AGL
Weather: no significant weather observed at this time

METAR text: LOWG 241020Z VRB03KT 9999 FEW030 FEW045CB OVC250 26/17 Q1022 NOSIG
Conditions at: LOWG (GRAZ (MIL/CIV) , AT) observed 1020 UTC 24 August 2019
Temperature: 26.0°C (79°F)
Dewpoint: 17.0°C (63°F) [RH = 58%]
Pressure (altimeter): 30.18 inches Hg (1022.0 mb)
Winds: variable direction winds at 3 MPH (3 knots; 1.5 m/s)
Visibility: 6 or more miles (10+ km)
Ceiling: 25000 feet AGL
Clouds: few clouds at 3000 feet AGL
few clouds at 4500 feet AGL
overcast cloud deck at 25000 feet AGL
Weather: no significant weather observed at this time

METAR text: LOWG 240950Z 14005KT 100V210 9999 FEW030 FEW045CB OVC250 26/18 Q1022 NOSIG
Conditions at: LOWG (GRAZ (MIL/CIV) , AT) observed 0950 UTC 24 August 2019
Temperature: 26.0°C (79°F)
Dewpoint: 18.0°C (64°F) [RH = 61%]
Pressure (altimeter): 30.18 inches Hg (1022.0 mb)
Winds: from the SE (140 degrees) at 6 MPH (5 knots; 2.6 m/s)
Visibility: 6 or more miles (10+ km)
Ceiling: 25000 feet AGL
Clouds: few clouds at 3000 feet AGL
few clouds at 4500 feet AGL
overcast cloud deck at 25000 feet AGL
Weather: no significant weather observed at this time

METAR text: LOWG 240920Z VRB03KT 9999 FEW040 FEW045CB SCT100 OVC200 26/19 Q1022 NOSIG
Conditions at: LOWG (GRAZ (MIL/CIV) , AT) observed 0920 UTC 24 August 2019
Temperature: 26.0°C (79°F)
Dewpoint: 19.0°C (66°F) [RH = 65%]
Pressure (altimeter): 30.18 inches Hg (1022.0 mb)
Winds: variable direction winds at 3 MPH (3 knots; 1.5 m/s)
Visibility: 6 or more miles (10+ km)
Ceiling: 20000 feet AGL
Clouds: few clouds at 4000 feet AGL
few clouds at 4500 feet AGL
scattered clouds at 10000 feet AGL
overcast cloud deck at 20000 feet AGL
Weather: no significant weather observed at this time

METAR text: LOWG 240850Z 11003KT 020V160 9999 FEW030 FEW045TCU SCT048 OVC200 24/18 Q1023 NOSIG
Conditions at: LOWG (GRAZ (MIL/CIV) , AT) observed 0850 UTC 24 August 2019
Temperature: 24.0°C (75°F)
Dewpoint: 18.0°C (64°F) [RH = 69%]
Pressure (altimeter): 30.21 inches Hg (1023.0 mb)
Winds: from the ESE (110 degrees) at 3 MPH (3 knots; 1.5 m/s)
Visibility: 6 or more miles (10+ km)
Ceiling: 20000 feet AGL
Clouds: few clouds at 3000 feet AGL
few clouds at 4500 feet AGL
scattered clouds at 4800 feet AGL
overcast cloud deck at 20000 feet AGL
Weather: no significant weather observed at this time

METAR text: LOWG 240820Z VRB01KT 9999 FEW030 SCT048 OVC250 24/18 Q1023 NOSIG
Conditions at: LOWG (GRAZ (MIL/CIV) , AT) observed 0820 UTC 24 August 2019
Temperature: 24.0°C (75°F)
Dewpoint: 18.0°C (64°F) [RH = 69%]
Pressure (altimeter): 30.21 inches Hg (1023.0 mb)
Winds: variable direction winds at 1 MPH (1 knots; 0.5 m/s)
Visibility: 6 or more miles (10+ km)
Ceiling: 25000 feet AGL
Clouds: few clouds at 3000 feet AGL
scattered clouds at 4800 feet AGL
overcast cloud deck at 25000 feet AGL
Weather: no significant weather observed at this time

METAR text: LOWG 240750Z VRB02KT 9999 FEW030 SCT048 OVC250 23/18 Q1023 NOSIG
Conditions at: LOWG (GRAZ (MIL/CIV) , AT) observed 0750 UTC 24 August 2019
Temperature: 23.0°C (73°F)
Dewpoint: 18.0°C (64°F) [RH = 73%]
Pressure (altimeter): 30.21 inches Hg (1023.0 mb)
Winds: variable direction winds at 2 MPH (2 knots; 1.0 m/s)
Visibility: 6 or more miles (10+ km)
Ceiling: 25000 feet AGL
Clouds: few clouds at 3000 feet AGL
scattered clouds at 4800 feet AGL
overcast cloud deck at 25000 feet AGL
Weather: no significant weather observed at this time

METAR text: LOWG 240720Z VRB02KT 9999 FEW030 SCT050 OVC250 21/18 Q1023 NOSIG
Conditions at: LOWG (GRAZ (MIL/CIV) , AT) observed 0720 UTC 24 August 2019
Temperature: 21.0°C (70°F)
Dewpoint: 18.0°C (64°F) [RH = 83%]
Pressure (altimeter): 30.21 inches Hg (1023.0 mb)
Winds: variable direction winds at 2 MPH (2 knots; 1.0 m/s)
Visibility: 6 or more miles (10+ km)
Ceiling: 25000 feet AGL
Clouds: few clouds at 3000 feet AGL
scattered clouds at 5000 feet AGL
overcast cloud deck at 25000 feet AGL
Weather: no significant weather observed at this time

METAR text: LOWG 240650Z VRB01KT 9999 FEW030 SCT050 OVC250 20/18 Q1023 NOSIG
Conditions at: LOWG (GRAZ (MIL/CIV) , AT) observed 0650 UTC 24 August 2019
Temperature: 20.0°C (68°F)
Dewpoint: 18.0°C (64°F) [RH = 88%]
Pressure (altimeter): 30.21 inches Hg (1023.0 mb)
Winds: variable direction winds at 1 MPH (1 knots; 0.5 m/s)
Visibility: 6 or more miles (10+ km)
Ceiling: 25000 feet AGL
Clouds: few clouds at 3000 feet AGL
scattered clouds at 5000 feet AGL
overcast cloud deck at 25000 feet AGL
Weather: no significant weather observed at this time

METAR text: LOWG 240620Z VRB01KT 9999 FEW030 BKN050 OVC250 19/17 Q1023 NOSIG
Conditions at: LOWG (GRAZ (MIL/CIV) , AT) observed 0620 UTC 24 August 2019
Temperature: 19.0°C (66°F)
Dewpoint: 17.0°C (63°F) [RH = 88%]
Pressure (altimeter): 30.21 inches Hg (1023.0 mb)
Winds: variable direction winds at 1 MPH (1 knots; 0.5 m/s)
Visibility: 6 or more miles (10+ km)
Ceiling: 5000 feet AGL
Clouds: few clouds at 3000 feet AGL
broken clouds at 5000 feet AGL
overcast cloud deck at 25000 feet AGL
Weather: no significant weather observed at this time

METAR text: LOWG 240550Z VRB01KT 9999 FEW030 BKN050 OVC250 18/17 Q1023 NOSIG
Conditions at: LOWG (GRAZ (MIL/CIV) , AT) observed 0550 UTC 24 August 2019
Temperature: 18.0°C (64°F)
Dewpoint: 17.0°C (63°F) [RH = 94%]
Pressure (altimeter): 30.21 inches Hg (1023.0 mb)
Winds: variable direction winds at 1 MPH (1 knots; 0.5 m/s)
Visibility: 6 or more miles (10+ km)
Ceiling: 5000 feet AGL
Clouds: few clouds at 3000 feet AGL
broken clouds at 5000 feet AGL
overcast cloud deck at 25000 feet AGL
Weather: no significant weather observed at this time

METAR text: LOWG 240520Z VRB01KT 8000 FEW030 BKN045 OVC250 18/17 Q1023 NOSIG
Conditions at: LOWG (GRAZ (MIL/CIV) , AT) observed 0520 UTC 24 August 2019
Temperature: 18.0°C (64°F)
Dewpoint: 17.0°C (63°F) [RH = 94%]
Pressure (altimeter): 30.21 inches Hg (1023.0 mb)
Winds: variable direction winds at 1 MPH (1 knots; 0.5 m/s)
Visibility: 5 miles ( 8 km)
Ceiling: 4500 feet AGL
Clouds: few clouds at 3000 feet AGL
broken clouds at 4500 feet AGL
overcast cloud deck at 25000 feet AGL
Weather: no significant weather observed at this time

METAR text: LOWG 240450Z 10002KT 7000 MIFG FEW030 BKN045 17/16 Q1023 NOSIG
Conditions at: LOWG (GRAZ (MIL/CIV) , AT) observed 0450 UTC 24 August 2019
Temperature: 17.0°C (63°F)
Dewpoint: 16.0°C (61°F) [RH = 94%]
Pressure (altimeter): 30.21 inches Hg (1023.0 mb)
Winds: from the E (100 degrees) at 2 MPH (2 knots; 1.0 m/s)
Visibility: 4 miles ( 7 km)
Ceiling: 4500 feet AGL
Clouds: few clouds at 3000 feet AGL
broken clouds at 4500 feet AGL
Weather: MIFG  (shallow fog)

METAR text: LOWG 240420Z VRB01KT 7000 FEW030 BKN040 17/16 Q1023 NOSIG
Conditions at: LOWG (GRAZ (MIL/CIV) , AT) observed 0420 UTC 24 August 2019
Temperature: 17.0°C (63°F)
Dewpoint: 16.0°C (61°F) [RH = 94%]
Pressure (altimeter): 30.21 inches Hg (1023.0 mb)
Winds: variable direction winds at 1 MPH (1 knots; 0.5 m/s)
Visibility: 4 miles ( 7 km)
Ceiling: 4000 feet AGL
Clouds: few clouds at 3000 feet AGL
broken clouds at 4000 feet AGL
Weather: no significant weather observed at this time

METAR text: LOWG 240350Z VRB01KT 6000 MIFG FEW030 BKN040 17/16 Q1023 NOSIG
Conditions at: LOWG (GRAZ (MIL/CIV) , AT) observed 0350 UTC 24 August 2019
Temperature: 17.0°C (63°F)
Dewpoint: 16.0°C (61°F) [RH = 94%]
Pressure (altimeter): 30.21 inches Hg (1023.0 mb)
Winds: variable direction winds at 1 MPH (1 knots; 0.5 m/s)
Visibility: 4 miles ( 6 km)
Ceiling: 4000 feet AGL
Clouds: few clouds at 3000 feet AGL
broken clouds at 4000 feet AGL
Weather: MIFG  (shallow fog)

METAR text: LOWG 240320Z AUTO VRB01KT 4900 BR FEW042 17/17 Q1023
Conditions at: LOWG (GRAZ (MIL/CIV) , AT) observed 0320 UTC 24 August 2019
Temperature: 17.0°C (63°F)
Dewpoint: 17.0°C (63°F) [RH = 100%]
Pressure (altimeter): 30.21 inches Hg (1023.0 mb)
Winds: variable direction winds at 1 MPH (1 knots; 0.5 m/s)
Visibility: 3 miles ( 5 km)
Ceiling: at least 12,000 feet AGL
Clouds: few clouds at 4200 feet AGL
Weather: BR  (mist)

METAR text: LOWG 240250Z AUTO VRB01KT 3900 1200S R17/P1500D R35/0800D BR FEW040 17/17 Q1023
Conditions at: LOWG (GRAZ (MIL/CIV) , AT) observed 0250 UTC 24 August 2019
Temperature: 17.0°C (63°F)
Dewpoint: 17.0°C (63°F) [RH = 100%]
Pressure (altimeter): 30.21 inches Hg (1023.0 mb)
Winds: variable direction winds at 1 MPH (1 knots; 0.5 m/s)
Visibility: 2.42 miles (3.89 km)
Ceiling: at least 12,000 feet AGL
Clouds: few clouds at 4000 feet AGL
Weather: BR  (mist)

METAR text: LOWG 240220Z AUTO VRB01KT 8000 FEW044 18/17 Q1023
Conditions at: LOWG (GRAZ (MIL/CIV) , AT) observed 0220 UTC 24 August 2019
Temperature: 18.0°C (64°F)
Dewpoint: 17.0°C (63°F) [RH = 94%]
Pressure (altimeter): 30.21 inches Hg (1023.0 mb)
Winds: variable direction winds at 1 MPH (1 knots; 0.5 m/s)
Visibility: 5 miles ( 8 km)
Ceiling: at least 12,000 feet AGL
Clouds: few clouds at 4400 feet AGL
Weather: no significant weather observed at this time

METAR text: LOWG 240150Z AUTO VRB01KT 9999 FEW032 SCT048 18/17 Q1023
Conditions at: LOWG (GRAZ (MIL/CIV) , AT) observed 0150 UTC 24 August 2019
Temperature: 18.0°C (64°F)
Dewpoint: 17.0°C (63°F) [RH = 94%]
Pressure (altimeter): 30.21 inches Hg (1023.0 mb)
Winds: variable direction winds at 1 MPH (1 knots; 0.5 m/s)
Visibility: 6 or more miles (10+ km)
Ceiling: at least 12,000 feet AGL
Clouds: few clouds at 3200 feet AGL
scattered clouds at 4800 feet AGL
Weather: no significant weather observed at this time

METAR text: LOWG 240120Z AUTO VRB01KT 9999 FEW036 SCT050 18/17 Q1023
Conditions at: LOWG (GRAZ (MIL/CIV) , AT) observed 0120 UTC 24 August 2019
Temperature: 18.0°C (64°F)
Dewpoint: 17.0°C (63°F) [RH = 94%]
Pressure (altimeter): 30.21 inches Hg (1023.0 mb)
Winds: variable direction winds at 1 MPH (1 knots; 0.5 m/s)
Visibility: 6 or more miles (10+ km)
Ceiling: at least 12,000 feet AGL
Clouds: few clouds at 3600 feet AGL
scattered clouds at 5000 feet AGL
Weather: no significant weather observed at this time

METAR text: LOWG 240050Z AUTO VRB01KT 9999 //////CB FEW034 BKN044 18/17 Q1023
Conditions at: LOWG (GRAZ (MIL/CIV) , AT) observed 0050 UTC 24 August 2019
Temperature: 18.0°C (64°F)
Dewpoint: 17.0°C (63°F) [RH = 94%]
Pressure (altimeter): 30.21 inches Hg (1023.0 mb)
Winds: variable direction winds at 1 MPH (1 knots; 0.5 m/s)
Visibility: 6 or more miles (10+ km)
Ceiling: 4400 feet AGL
Clouds: few clouds at 3400 feet AGL
broken clouds at 4400 feet AGL
Weather: no significant weather observed at this time

METAR text: LOWG 240020Z AUTO 16002KT 9999 //////CB FEW034 BKN046 18/17 Q1023
Conditions at: LOWG (GRAZ (MIL/CIV) , AT) observed 0020 UTC 24 August 2019
Temperature: 18.0°C (64°F)
Dewpoint: 17.0°C (63°F) [RH = 94%]
Pressure (altimeter): 30.21 inches Hg (1023.0 mb)
Winds: from the SSE (160 degrees) at 2 MPH (2 knots; 1.0 m/s)
Visibility: 6 or more miles (10+ km)
Ceiling: 4600 feet AGL
Clouds: few clouds at 3400 feet AGL
broken clouds at 4600 feet AGL
Weather: no significant weather observed at this time

METAR text: LOWG 232350Z AUTO VRB01KT 9999 FEW048 18/17 Q1023
Conditions at: LOWG (GRAZ (MIL/CIV) , AT) observed 2350 UTC 23 August 2019
Temperature: 18.0°C (64°F)
Dewpoint: 17.0°C (63°F) [RH = 94%]
Pressure (altimeter): 30.21 inches Hg (1023.0 mb)
Winds: variable direction winds at 1 MPH (1 knots; 0.5 m/s)
Visibility: 6 or more miles (10+ km)
Ceiling: at least 12,000 feet AGL
Clouds: few clouds at 4800 feet AGL
Weather: no significant weather observed at this time

METAR text: LOWG 232320Z AUTO VRB01KT 9999 FEW038 SCT070 19/17 Q1023
Conditions at: LOWG (GRAZ (MIL/CIV) , AT) observed 2320 UTC 23 August 2019
Temperature: 19.0°C (66°F)
Dewpoint: 17.0°C (63°F) [RH = 88%]
Pressure (altimeter): 30.21 inches Hg (1023.0 mb)
Winds: variable direction winds at 1 MPH (1 knots; 0.5 m/s)
Visibility: 6 or more miles (10+ km)
Ceiling: at least 12,000 feet AGL
Clouds: few clouds at 3800 feet AGL
scattered clouds at 7000 feet AGL
Weather: no significant weather observed at this time

METAR text: LOWG 232250Z AUTO VRB01KT 9999 FEW034 SCT038 BKN090 19/17 Q1024
Conditions at: LOWG (GRAZ (MIL/CIV) , AT) observed 2250 UTC 23 August 2019
Temperature: 19.0°C (66°F)
Dewpoint: 17.0°C (63°F) [RH = 88%]
Pressure (altimeter): 30.24 inches Hg (1024.0 mb)
Winds: variable direction winds at 1 MPH (1 knots; 0.5 m/s)
Visibility: 6 or more miles (10+ km)
Ceiling: 9000 feet AGL
Clouds: few clouds at 3400 feet AGL
scattered clouds at 3800 feet AGL
broken clouds at 9000 feet AGL
Weather: no significant weather observed at this time

METAR text: LOWG 232220Z AUTO VRB01KT 9999 FEW036 SCT042 19/17 Q1024
Conditions at: LOWG (GRAZ (MIL/CIV) , AT) observed 2220 UTC 23 August 2019
Temperature: 19.0°C (66°F)
Dewpoint: 17.0°C (63°F) [RH = 88%]
Pressure (altimeter): 30.24 inches Hg (1024.0 mb)
Winds: variable direction winds at 1 MPH (1 knots; 0.5 m/s)
Visibility: 6 or more miles (10+ km)
Ceiling: at least 12,000 feet AGL
Clouds: few clouds at 3600 feet AGL
scattered clouds at 4200 feet AGL
Weather: no significant weather observed at this time

METAR text: LOWG 232150Z AUTO VRB01KT 9999 //////CB FEW036 SCT050 19/17 Q1024
Conditions at: LOWG (GRAZ (MIL/CIV) , AT) observed 2150 UTC 23 August 2019
Temperature: 19.0°C (66°F)
Dewpoint: 17.0°C (63°F) [RH = 88%]
Pressure (altimeter): 30.24 inches Hg (1024.0 mb)
Winds: variable direction winds at 1 MPH (1 knots; 0.5 m/s)
Visibility: 6 or more miles (10+ km)
Ceiling: at least 12,000 feet AGL
Clouds: few clouds at 3600 feet AGL
scattered clouds at 5000 feet AGL
Weather: no significant weather observed at this time

METAR text: LOWG 232120Z AUTO VRB01KT 9999 FEW036 BKN050 20/17 Q1024 NOSIG
Conditions at: LOWG (GRAZ (MIL/CIV) , AT) observed 2120 UTC 23 August 2019
Temperature: 20.0°C (68°F)
Dewpoint: 17.0°C (63°F) [RH = 83%]
Pressure (altimeter): 30.24 inches Hg (1024.0 mb)
Winds: variable direction winds at 1 MPH (1 knots; 0.5 m/s)
Visibility: 6 or more miles (10+ km)
Ceiling: 5000 feet AGL
Clouds: few clouds at 3600 feet AGL
broken clouds at 5000 feet AGL
Weather: no significant weather observed at this time

METAR text: LOWG 232050Z AUTO VRB01KT 9999 BKN050 19/17 Q1024 NOSIG
Conditions at: LOWG (GRAZ (MIL/CIV) , AT) observed 2050 UTC 23 August 2019
Temperature: 19.0°C (66°F)
Dewpoint: 17.0°C (63°F) [RH = 88%]
Pressure (altimeter): 30.24 inches Hg (1024.0 mb)
Winds: variable direction winds at 1 MPH (1 knots; 0.5 m/s)
Visibility: 6 or more miles (10+ km)
Ceiling: 5000 feet AGL
Clouds: broken clouds at 5000 feet AGL
Weather: no significant weather observed at this time

METAR text: LOWG 232020Z AUTO VRB01KT 9999 BKN050 20/17 Q1024 NOSIG
Conditions at: LOWG (GRAZ (MIL/CIV) , AT) observed 2020 UTC 23 August 2019
Temperature: 20.0°C (68°F)
Dewpoint: 17.0°C (63°F) [RH = 83%]
Pressure (altimeter): 30.24 inches Hg (1024.0 mb)
Winds: variable direction winds at 1 MPH (1 knots; 0.5 m/s)
Visibility: 6 or more miles (10+ km)
Ceiling: 5000 feet AGL
Clouds: broken clouds at 5000 feet AGL
Weather: no significant weather observed at this time

METAR text: LOWG 231950Z AUTO VRB01KT 9999 SCT050 20/17 Q1024 NOSIG
Conditions at: LOWG (GRAZ (MIL/CIV) , AT) observed 1950 UTC 23 August 2019
Temperature: 20.0°C (68°F)
Dewpoint: 17.0°C (63°F) [RH = 83%]
Pressure (altimeter): 30.24 inches Hg (1024.0 mb)
Winds: variable direction winds at 1 MPH (1 knots; 0.5 m/s)
Visibility: 6 or more miles (10+ km)
Ceiling: at least 12,000 feet AGL
Clouds: scattered clouds at 5000 feet AGL
Weather: no significant weather observed at this time

METAR text: LOWG 231920Z AUTO VRB02KT 9999 NSC 21/17 Q1024 NOSIG
Conditions at: LOWG (GRAZ (MIL/CIV) , AT) observed 1920 UTC 23 August 2019
Temperature: 21.0°C (70°F)
Dewpoint: 17.0°C (63°F) [RH = 78%]
Pressure (altimeter): 30.24 inches Hg (1024.0 mb)
Winds: variable direction winds at 2 MPH (2 knots; 1.0 m/s)
Visibility: 6 or more miles (10+ km)
Ceiling: at least 12,000 feet AGL
Clouds: sky clear below 12,000 feet AGL
Weather: no significant weather observed at this time

METAR text: LOWG 231850Z AUTO 28002KT 9999 NSC 22/17 Q1024 NOSIG
Conditions at: LOWG (GRAZ (MIL/CIV) , AT) observed 1850 UTC 23 August 2019
Temperature: 22.0°C (72°F)
Dewpoint: 17.0°C (63°F) [RH = 73%]
Pressure (altimeter): 30.24 inches Hg (1024.0 mb)
Winds: from the W (280 degrees) at 2 MPH (2 knots; 1.0 m/s)
Visibility: 6 or more miles (10+ km)
Ceiling: at least 12,000 feet AGL
Clouds: sky clear below 12,000 feet AGL
Weather: no significant weather observed at this time

METAR text: LOWG 231820Z AUTO 28002KT 9999 FEW048 22/17 Q1024 NOSIG
Conditions at: LOWG (GRAZ (MIL/CIV) , AT) observed 1820 UTC 23 August 2019
Temperature: 22.0°C (72°F)
Dewpoint: 17.0°C (63°F) [RH = 73%]
Pressure (altimeter): 30.24 inches Hg (1024.0 mb)
Winds: from the W (280 degrees) at 2 MPH (2 knots; 1.0 m/s)
Visibility: 6 or more miles (10+ km)
Ceiling: at least 12,000 feet AGL
Clouds: few clouds at 4800 feet AGL
Weather: no significant weather observed at this time

METAR text: LOWG 231750Z AUTO VRB02KT 9999 NSC 23/17 Q1024 NOSIG
Conditions at: LOWG (GRAZ (MIL/CIV) , AT) observed 1750 UTC 23 August 2019
Temperature: 23.0°C (73°F)
Dewpoint: 17.0°C (63°F) [RH = 69%]
Pressure (altimeter): 30.24 inches Hg (1024.0 mb)
Winds: variable direction winds at 2 MPH (2 knots; 1.0 m/s)
Visibility: 6 or more miles (10+ km)
Ceiling: at least 12,000 feet AGL
Clouds: sky clear below 12,000 feet AGL
Weather: no significant weather observed at this time

METAR text: LOWG 231720Z 23003KT 9999 FEW030 SCT050 BKN250 23/17 Q1024 NOSIG
Conditions at: LOWG (GRAZ (MIL/CIV) , AT) observed 1720 UTC 23 August 2019
Temperature: 23.0°C (73°F)
Dewpoint: 17.0°C (63°F) [RH = 69%]
Pressure (altimeter): 30.24 inches Hg (1024.0 mb)
Winds: from the SW (230 degrees) at 3 MPH (3 knots; 1.5 m/s)
Visibility: 6 or more miles (10+ km)
Ceiling: 25000 feet AGL
Clouds: few clouds at 3000 feet AGL
scattered clouds at 5000 feet AGL
broken clouds at 25000 feet AGL
Weather: no significant weather observed at this time

METAR text: LOWG 231650Z 24004KT 9999 FEW030 SCT050 BKN250 24/17 Q1024 NOSIG
Conditions at: LOWG (GRAZ (MIL/CIV) , AT) observed 1650 UTC 23 August 2019
Temperature: 24.0°C (75°F)
Dewpoint: 17.0°C (63°F) [RH = 65%]
Pressure (altimeter): 30.24 inches Hg (1024.0 mb)
Winds: from the WSW (240 degrees) at 5 MPH (4 knots; 2.1 m/s)
Visibility: 6 or more miles (10+ km)
Ceiling: 25000 feet AGL
Clouds: few clouds at 3000 feet AGL
scattered clouds at 5000 feet AGL
broken clouds at 25000 feet AGL
Weather: no significant weather observed at this time

METAR text: LOWG 231620Z 20004KT 170V240 9999 FEW030 SCT050 BKN250 24/17 Q1024 NOSIG
Conditions at: LOWG (GRAZ (MIL/CIV) , AT) observed 1620 UTC 23 August 2019
Temperature: 24.0°C (75°F)
Dewpoint: 17.0°C (63°F) [RH = 65%]
Pressure (altimeter): 30.24 inches Hg (1024.0 mb)
Winds: from the SSW (200 degrees) at 5 MPH (4 knots; 2.1 m/s)
Visibility: 6 or more miles (10+ km)
Ceiling: 25000 feet AGL
Clouds: few clouds at 3000 feet AGL
scattered clouds at 5000 feet AGL
broken clouds at 25000 feet AGL
Weather: no significant weather observed at this time

METAR text: LOWG 231550Z VRB02KT 9999 FEW030 SCT050 BKN250 25/17 Q1024 NOSIG
Conditions at: LOWG (GRAZ (MIL/CIV) , AT) observed 1550 UTC 23 August 2019
Temperature: 25.0°C (77°F)
Dewpoint: 17.0°C (63°F) [RH = 61%]
Pressure (altimeter): 30.24 inches Hg (1024.0 mb)
Winds: variable direction winds at 2 MPH (2 knots; 1.0 m/s)
Visibility: 6 or more miles (10+ km)
Ceiling: 25000 feet AGL
Clouds: few clouds at 3000 feet AGL
scattered clouds at 5000 feet AGL
broken clouds at 25000 feet AGL
Weather: no significant weather observed at this time

METAR text: LOWG 231520Z VRB02KT 9999 FEW030 SCT050 25/17 Q1024 NOSIG
Conditions at: LOWG (GRAZ (MIL/CIV) , AT) observed 1520 UTC 23 August 2019
Temperature: 25.0°C (77°F)
Dewpoint: 17.0°C (63°F) [RH = 61%]
Pressure (altimeter): 30.24 inches Hg (1024.0 mb)
Winds: variable direction winds at 2 MPH (2 knots; 1.0 m/s)
Visibility: 6 or more miles (10+ km)
Ceiling: at least 12,000 feet AGL
Clouds: few clouds at 3000 feet AGL
scattered clouds at 5000 feet AGL
Weather: no significant weather observed at this time

METAR text: LOWG 231450Z 28003KT 230V340 9999 FEW030 SCT050 25/17 Q1024 NOSIG
Conditions at: LOWG (GRAZ (MIL/CIV) , AT) observed 1450 UTC 23 August 2019
Temperature: 25.0°C (77°F)
Dewpoint: 17.0°C (63°F) [RH = 61%]
Pressure (altimeter): 30.24 inches Hg (1024.0 mb)
Winds: from the W (280 degrees) at 3 MPH (3 knots; 1.5 m/s)
Visibility: 6 or more miles (10+ km)
Ceiling: at least 12,000 feet AGL
Clouds: few clouds at 3000 feet AGL
scattered clouds at 5000 feet AGL
Weather: no significant weather observed at this time

METAR text: LOWG 231420Z 28004KT 220V330 9999 FEW030 SCT050 25/17 Q1024 NOSIG
Conditions at: LOWG (GRAZ (MIL/CIV) , AT) observed 1420 UTC 23 August 2019
Temperature: 25.0°C (77°F)
Dewpoint: 17.0°C (63°F) [RH = 61%]
Pressure (altimeter): 30.24 inches Hg (1024.0 mb)
Winds: from the W (280 degrees) at 5 MPH (4 knots; 2.1 m/s)
Visibility: 6 or more miles (10+ km)
Ceiling: at least 12,000 feet AGL
Clouds: few clouds at 3000 feet AGL
scattered clouds at 5000 feet AGL
Weather: no significant weather observed at this time

METAR text: LOWG 231350Z 26004KT 200V350 9999 FEW030 SCT050 25/17 Q1025 NOSIG
Conditions at: LOWG (GRAZ (MIL/CIV) , AT) observed 1350 UTC 23 August 2019
Temperature: 25.0°C (77°F)
Dewpoint: 17.0°C (63°F) [RH = 61%]
Pressure (altimeter): 30.27 inches Hg (1025.0 mb)
Winds: from the W (260 degrees) at 5 MPH (4 knots; 2.1 m/s)
Visibility: 6 or more miles (10+ km)
Ceiling: at least 12,000 feet AGL
Clouds: few clouds at 3000 feet AGL
scattered clouds at 5000 feet AGL
Weather: no significant weather observed at this time

METAR text: LOWG 231320Z VRB03KT 9999 FEW030 SCT040 BKN050 24/16 Q1025 NOSIG
Conditions at: LOWG (GRAZ (MIL/CIV) , AT) observed 1320 UTC 23 August 2019
Temperature: 24.0°C (75°F)
Dewpoint: 16.0°C (61°F) [RH = 61%]
Pressure (altimeter): 30.27 inches Hg (1025.0 mb)
Winds: variable direction winds at 3 MPH (3 knots; 1.5 m/s)
Visibility: 6 or more miles (10+ km)
Ceiling: 5000 feet AGL
Clouds: few clouds at 3000 feet AGL
scattered clouds at 4000 feet AGL
broken clouds at 5000 feet AGL
Weather: no significant weather observed at this time

METAR text: LOWG 231250Z 25003KT 200V330 9999 FEW025 BKN038 23/16 Q1025 NOSIG
Conditions at: LOWG (GRAZ (MIL/CIV) , AT) observed 1250 UTC 23 August 2019
Temperature: 23.0°C (73°F)
Dewpoint: 16.0°C (61°F) [RH = 65%]
Pressure (altimeter): 30.27 inches Hg (1025.0 mb)
Winds: from the WSW (250 degrees) at 3 MPH (3 knots; 1.5 m/s)
Visibility: 6 or more miles (10+ km)
Ceiling: 3800 feet AGL
Clouds: few clouds at 2500 feet AGL
broken clouds at 3800 feet AGL
Weather: no significant weather observed at this time

METAR text: LOWG 231220Z 25003KT 170V310 9999 FEW025 BKN035 23/16 Q1025 NOSIG
Conditions at: LOWG (GRAZ (MIL/CIV) , AT) observed 1220 UTC 23 August 2019
Temperature: 23.0°C (73°F)
Dewpoint: 16.0°C (61°F) [RH = 65%]
Pressure (altimeter): 30.27 inches Hg (1025.0 mb)
Winds: from the WSW (250 degrees) at 3 MPH (3 knots; 1.5 m/s)
Visibility: 6 or more miles (10+ km)
Ceiling: 3500 feet AGL
Clouds: few clouds at 2500 feet AGL
broken clouds at 3500 feet AGL
Weather: no significant weather observed at this time

METAR text: LOWG 231150Z 25003KT 210V330 9999 FEW025 BKN033 23/16 Q1026 NOSIG
Conditions at: LOWG (GRAZ (MIL/CIV) , AT) observed 1150 UTC 23 August 2019
Temperature: 23.0°C (73°F)
Dewpoint: 16.0°C (61°F) [RH = 65%]
Pressure (altimeter): 30.30 inches Hg (1026.0 mb)
Winds: from the WSW (250 degrees) at 3 MPH (3 knots; 1.5 m/s)
Visibility: 6 or more miles (10+ km)
Ceiling: 3300 feet AGL
Clouds: few clouds at 2500 feet AGL
broken clouds at 3300 feet AGL
Weather: no significant weather observed at this time

METAR text: LOWG 231120Z 25003KT 210V340 9999 FEW025 BKN033 23/16 Q1026 NOSIG
Conditions at: LOWG (GRAZ (MIL/CIV) , AT) observed 1120 UTC 23 August 2019
Temperature: 23.0°C (73°F)
Dewpoint: 16.0°C (61°F) [RH = 65%]
Pressure (altimeter): 30.30 inches Hg (1026.0 mb)
Winds: from the WSW (250 degrees) at 3 MPH (3 knots; 1.5 m/s)
Visibility: 6 or more miles (10+ km)
Ceiling: 3300 feet AGL
Clouds: few clouds at 2500 feet AGL
broken clouds at 3300 feet AGL
Weather: no significant weather observed at this time

METAR text: LOWG 231050Z 29003KT 240V360 9999 FEW025 BKN033 22/16 Q1026 NOSIG
Conditions at: LOWG (GRAZ (MIL/CIV) , AT) observed 1050 UTC 23 August 2019
Temperature: 22.0°C (72°F)
Dewpoint: 16.0°C (61°F) [RH = 69%]
Pressure (altimeter): 30.30 inches Hg (1026.0 mb)
Winds: from the WNW (290 degrees) at 3 MPH (3 knots; 1.5 m/s)
Visibility: 6 or more miles (10+ km)
Ceiling: 3300 feet AGL
Clouds: few clouds at 2500 feet AGL
broken clouds at 3300 feet AGL
Weather: no significant weather observed at this time

METAR text: LOWG 231020Z 26004KT 200V310 9999 SCT030 BKN035 22/16 Q1026 NOSIG
Conditions at: LOWG (GRAZ (MIL/CIV) , AT) observed 1020 UTC 23 August 2019
Temperature: 22.0°C (72°F)
Dewpoint: 16.0°C (61°F) [RH = 69%]
Pressure (altimeter): 30.30 inches Hg (1026.0 mb)
Winds: from the W (260 degrees) at 5 MPH (4 knots; 2.1 m/s)
Visibility: 6 or more miles (10+ km)
Ceiling: 3500 feet AGL
Clouds: scattered clouds at 3000 feet AGL
broken clouds at 3500 feet AGL
Weather: no significant weather observed at this time

METAR text: LOWG 230950Z VRB01KT 9999 SCT030 BKN035 22/16 Q1026 NOSIG
Conditions at: LOWG (GRAZ (MIL/CIV) , AT) observed 0950 UTC 23 August 2019
Temperature: 22.0°C (72°F)
Dewpoint: 16.0°C (61°F) [RH = 69%]
Pressure (altimeter): 30.30 inches Hg (1026.0 mb)
Winds: variable direction winds at 1 MPH (1 knots; 0.5 m/s)
Visibility: 6 or more miles (10+ km)
Ceiling: 3500 feet AGL
Clouds: scattered clouds at 3000 feet AGL
broken clouds at 3500 feet AGL
Weather: no significant weather observed at this time

METAR text: LOWG 230920Z VRB02KT 9999 SCT033 BKN035 21/17 Q1026 NOSIG
Conditions at: LOWG (GRAZ (MIL/CIV) , AT) observed 0920 UTC 23 August 2019
Temperature: 21.0°C (70°F)
Dewpoint: 17.0°C (63°F) [RH = 78%]
Pressure (altimeter): 30.30 inches Hg (1026.0 mb)
Winds: variable direction winds at 2 MPH (2 knots; 1.0 m/s)
Visibility: 6 or more miles (10+ km)
Ceiling: 3500 feet AGL
Clouds: scattered clouds at 3300 feet AGL
broken clouds at 3500 feet AGL
Weather: no significant weather observed at this time

METAR text: LOWG 230850Z VRB03KT 9999 SCT033 BKN050 21/17 Q1026 NOSIG
Conditions at: LOWG (GRAZ (MIL/CIV) , AT) observed 0850 UTC 23 August 2019
Temperature: 21.0°C (70°F)
Dewpoint: 17.0°C (63°F) [RH = 78%]
Pressure (altimeter): 30.30 inches Hg (1026.0 mb)
Winds: variable direction winds at 3 MPH (3 knots; 1.5 m/s)
Visibility: 6 or more miles (10+ km)
Ceiling: 5000 feet AGL
Clouds: scattered clouds at 3300 feet AGL
broken clouds at 5000 feet AGL
Weather: no significant weather observed at this time

METAR text: LOWG 230820Z VRB02KT 9999 SCT033 BKN050 20/17 Q1026 NOSIG
Conditions at: LOWG (GRAZ (MIL/CIV) , AT) observed 0820 UTC 23 August 2019
Temperature: 20.0°C (68°F)
Dewpoint: 17.0°C (63°F) [RH = 83%]
Pressure (altimeter): 30.30 inches Hg (1026.0 mb)
Winds: variable direction winds at 2 MPH (2 knots; 1.0 m/s)
Visibility: 6 or more miles (10+ km)
Ceiling: 5000 feet AGL
Clouds: scattered clouds at 3300 feet AGL
broken clouds at 5000 feet AGL
Weather: no significant weather observed at this time

METAR text: LOWG 230750Z VRB02KT 9999 FEW008 SCT034 BKN055 20/17 Q1026 NOSIG
Conditions at: LOWG (GRAZ (MIL/CIV) , AT) observed 0750 UTC 23 August 2019
Temperature: 20.0°C (68°F)
Dewpoint: 17.0°C (63°F) [RH = 83%]
Pressure (altimeter): 30.30 inches Hg (1026.0 mb)
Winds: variable direction winds at 2 MPH (2 knots; 1.0 m/s)
Visibility: 6 or more miles (10+ km)
Ceiling: 5500 feet AGL
Clouds: few clouds at 800 feet AGL
scattered clouds at 3400 feet AGL
broken clouds at 5500 feet AGL
Weather: no significant weather observed at this time

METAR text: LOWG 230720Z VRB01KT 9999 FEW008 SCT030 BKN055 19/17 Q1026 NOSIG
Conditions at: LOWG (GRAZ (MIL/CIV) , AT) observed 0720 UTC 23 August 2019
Temperature: 19.0°C (66°F)
Dewpoint: 17.0°C (63°F) [RH = 88%]
Pressure (altimeter): 30.30 inches Hg (1026.0 mb)
Winds: variable direction winds at 1 MPH (1 knots; 0.5 m/s)
Visibility: 6 or more miles (10+ km)
Ceiling: 5500 feet AGL
Clouds: few clouds at 800 feet AGL
scattered clouds at 3000 feet AGL
broken clouds at 5500 feet AGL
Weather: no significant weather observed at this time

METAR text: LOWG 230650Z VRB01KT 9999 FEW008 BKN050 BKN140 19/17 Q1026 NOSIG
Conditions at: LOWG (GRAZ (MIL/CIV) , AT) observed 0650 UTC 23 August 2019
Temperature: 19.0°C (66°F)
Dewpoint: 17.0°C (63°F) [RH = 88%]
Pressure (altimeter): 30.30 inches Hg (1026.0 mb)
Winds: variable direction winds at 1 MPH (1 knots; 0.5 m/s)
Visibility: 6 or more miles (10+ km)
Ceiling: 5000 feet AGL
Clouds: few clouds at 800 feet AGL
broken clouds at 5000 feet AGL
broken clouds at 14000 feet AGL
Weather: no significant weather observed at this time

METAR text: LOWG 230620Z VRB01KT 9999 BKN050 BKN140 18/17 Q1026 NOSIG
Conditions at: LOWG (GRAZ (MIL/CIV) , AT) observed 0620 UTC 23 August 2019
Temperature: 18.0°C (64°F)
Dewpoint: 17.0°C (63°F) [RH = 94%]
Pressure (altimeter): 30.30 inches Hg (1026.0 mb)
Winds: variable direction winds at 1 MPH (1 knots; 0.5 m/s)
Visibility: 6 or more miles (10+ km)
Ceiling: 5000 feet AGL
Clouds: broken clouds at 5000 feet AGL
broken clouds at 14000 feet AGL
Weather: no significant weather observed at this time

METAR text: LOWG 230550Z VRB01KT 9999 BKN050 BKN140 18/16 Q1026 NOSIG
Conditions at: LOWG (GRAZ (MIL/CIV) , AT) observed 0550 UTC 23 August 2019
Temperature: 18.0°C (64°F)
Dewpoint: 16.0°C (61°F) [RH = 88%]
Pressure (altimeter): 30.30 inches Hg (1026.0 mb)
Winds: variable direction winds at 1 MPH (1 knots; 0.5 m/s)
Visibility: 6 or more miles (10+ km)
Ceiling: 5000 feet AGL
Clouds: broken clouds at 5000 feet AGL
broken clouds at 14000 feet AGL
Weather: no significant weather observed at this time

METAR text: LOWG 230520Z VRB01KT 9999 SCT050 BKN140 17/16 Q1026 NOSIG
Conditions at: LOWG (GRAZ (MIL/CIV) , AT) observed 0520 UTC 23 August 2019
Temperature: 17.0°C (63°F)
Dewpoint: 16.0°C (61°F) [RH = 94%]
Pressure (altimeter): 30.30 inches Hg (1026.0 mb)
Winds: variable direction winds at 1 MPH (1 knots; 0.5 m/s)
Visibility: 6 or more miles (10+ km)
Ceiling: 14000 feet AGL
Clouds: scattered clouds at 5000 feet AGL
broken clouds at 14000 feet AGL
Weather: no significant weather observed at this time

METAR text: LOWG 230450Z AUTO 13002KT 9999 BKN050 BKN120 17/16 Q1026 NOSIG
Conditions at: LOWG (GRAZ (MIL/CIV) , AT) observed 0450 UTC 23 August 2019
Temperature: 17.0°C (63°F)
Dewpoint: 16.0°C (61°F) [RH = 94%]
Pressure (altimeter): 30.30 inches Hg (1026.0 mb)
Winds: from the SE (130 degrees) at 2 MPH (2 knots; 1.0 m/s)
Visibility: 6 or more miles (10+ km)
Ceiling: 5000 feet AGL
Clouds: broken clouds at 5000 feet AGL
broken clouds at 12000 feet AGL
Weather: no significant weather observed at this time

METAR text: LOWG 230420Z AUTO VRB01KT 9999 FEW040 SCT050 BKN120 17/16 Q1025 NOSIG
Conditions at: LOWG (GRAZ (MIL/CIV) , AT) observed 0420 UTC 23 August 2019
Temperature: 17.0°C (63°F)
Dewpoint: 16.0°C (61°F) [RH = 94%]
Pressure (altimeter): 30.27 inches Hg (1025.0 mb)
Winds: variable direction winds at 1 MPH (1 knots; 0.5 m/s)
Visibility: 6 or more miles (10+ km)
Ceiling: 12000 feet AGL
Clouds: few clouds at 4000 feet AGL
scattered clouds at 5000 feet AGL
broken clouds at 12000 feet AGL
Weather: no significant weather observed at this time

METAR text: LOWG 230350Z AUTO VRB01KT 9999 FEW038 BKN040 17/16 Q1025 NOSIG
Conditions at: LOWG (GRAZ (MIL/CIV) , AT) observed 0350 UTC 23 August 2019
Temperature: 17.0°C (63°F)
Dewpoint: 16.0°C (61°F) [RH = 94%]
Pressure (altimeter): 30.27 inches Hg (1025.0 mb)
Winds: variable direction winds at 1 MPH (1 knots; 0.5 m/s)
Visibility: 6 or more miles (10+ km)
Ceiling: 4000 feet AGL
Clouds: few clouds at 3800 feet AGL
broken clouds at 4000 feet AGL
Weather: no significant weather observed at this time

METAR text: LOWG 230320Z AUTO 22003KT 9999 SCT038 BKN110 17/16 Q1025
Conditions at: LOWG (GRAZ (MIL/CIV) , AT) observed 0320 UTC 23 August 2019
Temperature: 17.0°C (63°F)
Dewpoint: 16.0°C (61°F) [RH = 94%]
Pressure (altimeter): 30.27 inches Hg (1025.0 mb)
Winds: from the SW (220 degrees) at 3 MPH (3 knots; 1.5 m/s)
Visibility: 6 or more miles (10+ km)
Ceiling: 11000 feet AGL
Clouds: scattered clouds at 3800 feet AGL
broken clouds at 11000 feet AGL
Weather: no significant weather observed at this time

METAR text: LOWG 230250Z AUTO VRB02KT 9999 -SHRA FEW100 BKN110 18/16 Q1025
Conditions at: LOWG (GRAZ (MIL/CIV) , AT) observed 0250 UTC 23 August 2019
Temperature: 18.0°C (64°F)
Dewpoint: 16.0°C (61°F) [RH = 88%]
Pressure (altimeter): 30.27 inches Hg (1025.0 mb)
Winds: variable direction winds at 2 MPH (2 knots; 1.0 m/s)
Visibility: 6 or more miles (10+ km)
Ceiling: 11000 feet AGL
Clouds: few clouds at 10000 feet AGL
broken clouds at 11000 feet AGL
Weather: -SHRA  (light rain showers)

METAR text: LOWG 230220Z AUTO 25004KT 230V310 9999 -RA FEW036 BKN100 18/16 Q1025
Conditions at: LOWG (GRAZ (MIL/CIV) , AT) observed 0220 UTC 23 August 2019
Temperature: 18.0°C (64°F)
Dewpoint: 16.0°C (61°F) [RH = 88%]
Pressure (altimeter): 30.27 inches Hg (1025.0 mb)
Winds: from the WSW (250 degrees) at 5 MPH (4 knots; 2.1 m/s)
Visibility: 6 or more miles (10+ km)
Ceiling: 10000 feet AGL
Clouds: few clouds at 3600 feet AGL
broken clouds at 10000 feet AGL
Weather: -RA  (light rain)

METAR text: LOWG 230150Z AUTO 24002KT 9999 -RA FEW034 BKN036 18/16 Q1025
Conditions at: LOWG (GRAZ (MIL/CIV) , AT) observed 0150 UTC 23 August 2019
Temperature: 18.0°C (64°F)
Dewpoint: 16.0°C (61°F) [RH = 88%]
Pressure (altimeter): 30.27 inches Hg (1025.0 mb)
Winds: from the WSW (240 degrees) at 2 MPH (2 knots; 1.0 m/s)
Visibility: 6 or more miles (10+ km)
Ceiling: 3600 feet AGL
Clouds: few clouds at 3400 feet AGL
broken clouds at 3600 feet AGL
Weather: -RA  (light rain)

METAR text: LOWG 230120Z AUTO VRB02KT 9999 FEW034 BKN036 18/16 Q1025
Conditions at: LOWG (GRAZ (MIL/CIV) , AT) observed 0120 UTC 23 August 2019
Temperature: 18.0°C (64°F)
Dewpoint: 16.0°C (61°F) [RH = 88%]
Pressure (altimeter): 30.27 inches Hg (1025.0 mb)
Winds: variable direction winds at 2 MPH (2 knots; 1.0 m/s)
Visibility: 6 or more miles (10+ km)
Ceiling: 3600 feet AGL
Clouds: few clouds at 3400 feet AGL
broken clouds at 3600 feet AGL
Weather: no significant weather observed at this time

Forecast for: AMD
Text: TAF AMD LOWG 241247Z 2412/2512 VRB02KT 9999 FEW040 FEW040CB BKN250 TX26/2512Z TN17/2504Z
Forecast period: 1200 UTC 24 August 2019 to 1200 UTC 25 August 2019
Forecast type: FROM: standard forecast or significant change
Winds: variable direction winds at 2 MPH (2 knots; 1.0 m/s)
Visibility: 6 or more miles 10+ km)
Ceiling: 25000 feet AGL
Clouds: few clouds at 4000 feet AGL
few clouds at 4000 feet AGL
broken clouds at 25000 feet AGL
Weather: no significant weather forecast for this period
Text: TEMPO 2413/2502 VRB10KT -TSRA SCT030 BKN050
Forecast period: 1300 UTC 24 August 2019 to 0200 UTC 25 August 2019
Forecast type: TEMPORARY: The following changes expected for less than half the time period
Winds: variable direction winds at 12 MPH (10 knots; 5.1 m/s)
Visibility: missing
Ceiling: 5000 feet AGL
Clouds: scattered clouds at 3000 feet AGL
broken clouds at 5000 feet AGL
Weather: -TSRA  (light rain associated with thunderstorm(s))
Text: PROB30
Forecast period: 1700 to 2000 UTC 24 August 2019
Forecast type: TEMPORARY: The following changes expected for less than half the time period
Visibility: 1.24 miles (2.00 km)
Ceiling: 4000 feet AGL
Clouds: scattered clouds at 3000 feet AGL
broken clouds at 4000 feet AGL
Weather: +TSRA  (heavy rain associated with thunderstorm(s))
Text: TEMPO 2417/2420 2000 +TSRA SCT030CB BKN040
Forecast period: 0000 to 0600 UTC 25 August 2019
Forecast type: TEMPORARY: The following changes expected for less than half the time period
Visibility: 0.50 miles (0.80 km)
Ceiling: at least 12,000 feet AGL
Clouds: few clouds at 100 feet AGL
Weather: BCFG  (patches of fog)